Aérodrome :
LOGIN :

S'inscrire | Disclaimer

   EN    FR    IT 

 










Légende :    VFR   VFR Marginal   IFR   IFR Intensif   IFR Très Intensif
Visi : 
Plafond : 
>= 8 km
>= 3000ft
5 à 8 km
1000 à 3000 ft
1500m à 5 km
500 à 1000 ft
800 à 1500m
200 à 500 ft
< 800m
< 200 ft
Symboles :   Orages  Brouillard  Fortes neiges  Fortes précipitations  Vent > 20 kt
SIGMETs :   Divers  Orages  Givrage  Turbulence  Onde Orograph.  Cendres Volcan.







- Altitude de l'aérodrome : 1213 ft
- Code IATA : SCQ


LEST - Santiago de Compostela

DERNIER METAR :
  • 141730Z 14004KT 110V170 9999 FEW025 14/11 Q1017 NOSIG

METARs EXPIRÉS :
  • 141700Z 16003KT 9999 FEW025 15/12 Q1017 NOSIG
  • 141630Z 17002KT 9999 FEW025 17/12 Q1017 NOSIG
  • 141600Z 12003KT 080V160 9999 FEW020 17/12 Q1017 NOSIG
  • 141530Z 16004KT 130V200 9999 FEW012 18/11 Q1017 NOSIG
  • 141500Z 15004KT 110V190 9999 FEW012 18/11 Q1017 NOSIG
  • 141430Z 18003KT 130V240 CAVOK 18/11 Q1017 NOSIG

TAF TAF LEST
Valide du 14 à 12h jusqu'au 15 à 12h UTC


141100Z 1412/1512 15008KT CAVOK TX17/1414Z TN09/1506Z
PROB30
TEMPO 1503/1508 1500 BCFG
PROB30
TEMPO 1503/1508 0800 BCFG BKN002
Pas de NOTAMs connus pour ce terrain.



MET'MAP, la Météo Aéronautique d'un coup d'oeil ! - Copyright ORBIFLY Décembre 2007 - Disclaimer

ORBIFLY MET'MAP TEAM :

Programmation & Développement : Alexandra Zaïnal
Conception & Développement : Baudouin d'Aumeries
Co-Programmation & Développement : Marc-Olivier Méhu
Soutien technique & logistique : Manuel Goepfert

Contact : metmap@orbifly.com




SOURCES & CREDITS :

   NOAA